createdAt,value
2023-06-11T00:00:02.033Z,6009.00
2023-06-11T00:01:02.028Z,6037.00
2023-06-11T00:02:02.079Z,6026.00
2023-06-11T00:03:02.133Z,6080.00
2023-06-11T00:04:02.228Z,6062.00
2023-06-11T00:05:02.138Z,6014.00
2023-06-11T00:06:02.161Z,6011.00
2023-06-11T00:07:02.311Z,5984.00
2023-06-11T00:08:02.357Z,5988.00
2023-06-11T00:09:02.304Z,6008.00
2023-06-11T00:10:02.307Z,6042.00
2023-06-11T00:11:02.346Z,6021.00
2023-06-11T00:12:02.433Z,6047.00
2023-06-11T00:13:02.452Z,6111.00
2023-06-11T00:14:02.476Z,6111.00
2023-06-11T00:15:02.567Z,6085.00
2023-06-11T00:16:02.636Z,6097.00
2023-06-11T00:17:02.659Z,6085.00
2023-06-11T00:18:02.819Z,6050.00
2023-06-11T00:19:02.690Z,6068.00
2023-06-11T00:20:02.759Z,6126.00
2023-06-11T00:21:02.789Z,6155.00
2023-06-11T00:22:02.813Z,6189.00
2023-06-11T00:23:02.864Z,6119.00
2023-06-11T00:24:02.847Z,6075.00
2023-06-11T00:25:02.877Z,6080.00
2023-06-11T00:26:02.865Z,6080.00
2023-06-11T00:27:02.980Z,6061.00
2023-06-11T00:28:02.950Z,6046.00
2023-06-11T00:29:02.925Z,6011.00
2023-06-11T00:30:02.971Z,5903.00
2023-06-11T00:31:03.061Z,5826.00
2023-06-11T00:32:03.181Z,5823.00
2023-06-11T00:33:03.217Z,5768.00
2023-06-11T00:34:03.239Z,5731.00
2023-06-11T00:35:03.232Z,5691.00
2023-06-11T00:36:03.279Z,5760.00
2023-06-11T00:37:03.292Z,5758.00
2023-06-11T00:38:03.359Z,5815.00
2023-06-11T00:39:03.420Z,5869.00
2023-06-11T00:40:03.470Z,5948.00
2023-06-11T00:41:03.503Z,5983.00
2023-06-11T00:42:03.539Z,5954.00
2023-06-11T00:43:03.594Z,5992.00
2023-06-11T00:44:03.598Z,6001.00
2023-06-11T00:45:03.605Z,6016.00
2023-06-11T00:46:03.858Z,5930.00
2023-06-11T00:47:03.676Z,5872.00
2023-06-11T00:48:03.753Z,5848.00
2023-06-11T00:49:03.737Z,5799.00
2023-06-11T00:50:03.738Z,5842.00
2023-06-11T00:51:03.751Z,5890.00
2023-06-11T00:52:03.765Z,5942.00
2023-06-11T00:53:03.776Z,5919.00
2023-06-11T00:54:03.859Z,5912.00
2023-06-11T00:55:03.800Z,5827.00
2023-06-11T00:56:03.836Z,5849.00
2023-06-11T00:57:03.843Z,5880.00
2023-06-11T00:58:03.880Z,5893.00
2023-06-11T00:59:03.877Z,5954.00
2023-06-11T01:00:03.920Z,5996.00
2023-06-11T01:01:04.009Z,5945.00
2023-06-11T01:02:04.038Z,5991.00
2023-06-11T01:03:04.125Z,6024.00
2023-06-11T01:04:04.156Z,5986.00
2023-06-11T01:05:04.198Z,5958.00
2023-06-11T01:06:04.107Z,5966.00
2023-06-11T01:07:04.183Z,5923.00
2023-06-11T01:08:04.184Z,5843.00
2023-06-11T01:09:04.236Z,5921.00
2023-06-11T01:10:04.238Z,5857.00
2023-06-11T01:11:04.287Z,5845.00
2023-06-11T01:12:04.310Z,5867.00
2023-06-11T01:13:04.305Z,5913.00
2023-06-11T01:14:04.336Z,5803.00
2023-06-11T01:15:04.416Z,5783.00
2023-06-11T01:16:04.468Z,5805.00
2023-06-11T01:17:04.505Z,5832.00
2023-06-11T01:18:04.568Z,5877.00
2023-06-11T01:19:04.584Z,5846.00
2023-06-11T01:20:04.584Z,5836.00
2023-06-11T01:21:04.590Z,5930.00
2023-06-11T01:22:04.619Z,5857.00
2023-06-11T01:23:04.640Z,5796.00
2023-06-11T01:24:04.717Z,5855.00
2023-06-11T01:25:04.719Z,5873.00
2023-06-11T01:26:04.719Z,5933.00
2023-06-11T01:27:04.793Z,5929.00
2023-06-11T01:28:04.856Z,5845.00
2023-06-11T01:29:04.907Z,5841.00
2023-06-11T01:30:04.948Z,5824.00
2023-06-11T01:31:05.048Z,5848.00
2023-06-11T01:32:05.098Z,5877.00
2023-06-11T01:33:05.132Z,5875.00
2023-06-11T01:34:05.153Z,5871.00
2023-06-11T01:35:06.118Z,5896.00
2023-06-11T01:36:05.156Z,5888.00
2023-06-11T01:37:05.213Z,5916.00
2023-06-11T01:38:05.302Z,5951.00
2023-06-11T01:39:05.303Z,5961.00
2023-06-11T01:40:05.431Z,5926.00
2023-06-11T01:41:05.376Z,5912.00
2023-06-11T01:42:05.441Z,5864.00
2023-06-11T01:43:05.420Z,5821.00
2023-06-11T01:44:05.468Z,5842.00
2023-06-11T01:45:05.487Z,5904.00
2023-06-11T01:46:05.521Z,5910.00
2023-06-11T01:47:05.615Z,5909.00
2023-06-11T01:48:05.663Z,5872.00
2023-06-11T01:49:05.721Z,5828.00
2023-06-11T01:50:05.657Z,5818.00
2023-06-11T01:51:05.702Z,5837.00
2023-06-11T01:52:05.670Z,5875.00
2023-06-11T01:53:05.696Z,5847.00
2023-06-11T01:54:05.707Z,5884.00
2023-06-11T01:55:05.764Z,5954.00
2023-06-11T01:56:05.759Z,5930.00
2023-06-11T01:57:05.815Z,5929.00
2023-06-11T01:58:05.833Z,5941.00
2023-06-11T01:59:05.841Z,5888.00
2023-06-11T02:00:05.872Z,5917.00
2023-06-11T02:01:05.891Z,5915.00
2023-06-11T02:02:06.015Z,5910.00
2023-06-11T02:03:05.982Z,5862.00
2023-06-11T02:04:06.036Z,5831.00
2023-06-11T02:05:06.064Z,5845.00
2023-06-11T02:06:06.114Z,5838.00
2023-06-11T02:07:06.151Z,5845.00
2023-06-11T02:08:06.175Z,5862.00
2023-06-11T02:09:06.187Z,5891.00
2023-06-11T02:10:06.221Z,5965.00
2023-06-11T02:11:06.260Z,5936.00
2023-06-11T02:12:06.240Z,5891.00
2023-06-11T02:13:06.273Z,5849.00
2023-06-11T02:14:06.316Z,5836.00
2023-06-11T02:15:06.339Z,5774.00
2023-06-11T02:16:06.371Z,5737.00
2023-06-11T02:17:06.449Z,5646.00
2023-06-11T02:18:06.445Z,5569.00
2023-06-11T02:19:06.465Z,5500.00
2023-06-11T02:20:06.485Z,5450.00
2023-06-11T02:21:06.481Z,5407.00
2023-06-11T02:22:06.488Z,5358.00
2023-06-11T02:23:06.559Z,5430.00
2023-06-11T02:24:06.567Z,5385.00
2023-06-11T02:25:06.557Z,5356.00
2023-06-11T02:26:06.638Z,5349.00
2023-06-11T02:27:06.625Z,5453.00
2023-06-11T02:28:06.654Z,5480.00
2023-06-11T02:29:06.654Z,5458.00
2023-06-11T02:30:06.702Z,5473.00
2023-06-11T02:31:06.765Z,5445.00
2023-06-11T02:32:06.891Z,5418.00
2023-06-11T02:33:06.921Z,5446.00
2023-06-11T02:34:06.865Z,5457.00
2023-06-11T02:35:06.853Z,5437.00
2023-06-11T02:36:06.882Z,5440.00
2023-06-11T02:37:06.902Z,5498.00
2023-06-11T02:38:06.908Z,5496.00
2023-06-11T02:39:06.976Z,5504.00
2023-06-11T02:40:06.984Z,5459.00
2023-06-11T02:41:06.978Z,5457.00
2023-06-11T02:42:07.055Z,5462.00
2023-06-11T02:43:07.019Z,5490.00
2023-06-11T02:44:07.057Z,5440.00
2023-06-11T02:45:07.070Z,5516.00
2023-06-11T02:46:07.166Z,5505.00
2023-06-11T02:47:07.127Z,5438.00
2023-06-11T02:48:07.221Z,5434.00
2023-06-11T02:49:07.189Z,5426.00
2023-06-11T02:50:07.232Z,5437.00
2023-06-11T02:51:07.314Z,5467.00
2023-06-11T02:52:07.308Z,5429.00
2023-06-11T02:53:07.328Z,5446.00
2023-06-11T02:54:07.353Z,5509.00
2023-06-11T02:55:07.386Z,5520.00
2023-06-11T02:56:07.377Z,5533.00
2023-06-11T02:57:07.390Z,5509.00
2023-06-11T02:58:07.428Z,5513.00
2023-06-11T02:59:07.477Z,5487.00
2023-06-11T03:00:07.534Z,5498.00
2023-06-11T03:01:07.564Z,5460.00
2023-06-11T03:02:07.555Z,5453.00
2023-06-11T03:03:07.641Z,5498.00
2023-06-11T03:04:07.718Z,5469.00
2023-06-11T03:05:07.816Z,5421.00
2023-06-11T03:06:07.756Z,5420.00
2023-06-11T03:07:07.755Z,5400.00
2023-06-11T03:08:07.803Z,5408.00
2023-06-11T03:09:07.818Z,5412.00
2023-06-11T03:10:07.856Z,5400.00
2023-06-11T03:11:07.905Z,5357.00
2023-06-11T03:12:07.858Z,5349.00
2023-06-11T03:13:07.947Z,5303.00
2023-06-11T03:14:07.916Z,5243.00
2023-06-11T03:15:08.048Z,5175.00
2023-06-11T03:16:08.008Z,5098.00
2023-06-11T03:17:08.015Z,5079.00
2023-06-11T03:18:08.006Z,5057.00
2023-06-11T03:19:08.039Z,5041.00
2023-06-11T03:20:08.047Z,5053.00
2023-06-11T03:21:08.044Z,5020.00
2023-06-11T03:22:08.090Z,5050.00
2023-06-11T03:23:08.101Z,5048.00
2023-06-11T03:24:08.214Z,5039.00
2023-06-11T03:25:08.321Z,5013.00
2023-06-11T03:26:08.153Z,5059.00
2023-06-11T03:27:08.164Z,5047.00
2023-06-11T03:28:08.241Z,5047.00
2023-06-11T03:29:08.273Z,5075.00
2023-06-11T03:30:08.347Z,5029.00
2023-06-11T03:31:08.370Z,5005.00
2023-06-11T03:32:10.494Z,5028.00
2023-06-11T03:33:08.438Z,5030.00
2023-06-11T03:34:08.376Z,5037.00
2023-06-11T03:35:08.737Z,5035.00
2023-06-11T03:36:08.388Z,5046.00
2023-06-11T03:37:08.360Z,5054.00
2023-06-11T03:38:08.331Z,5044.00
2023-06-11T03:39:08.362Z,5013.00
2023-06-11T03:40:08.348Z,5012.00
2023-06-11T03:41:08.358Z,4945.00
2023-06-11T03:42:08.332Z,5034.00
2023-06-11T03:43:08.332Z,5040.00
2023-06-11T03:44:08.278Z,5042.00
2023-06-11T03:45:08.345Z,4987.00
2023-06-11T03:46:08.269Z,4976.00
2023-06-11T03:47:08.295Z,4945.00
2023-06-11T03:48:08.714Z,4969.00
2023-06-11T03:49:08.274Z,4991.00
2023-06-11T03:50:08.273Z,4955.00
2023-06-11T03:51:08.232Z,4973.00
2023-06-11T03:52:08.223Z,4982.00
2023-06-11T03:53:08.236Z,4907.00
2023-06-11T03:54:08.260Z,4872.00
2023-06-11T03:55:08.576Z,4888.00
2023-06-11T03:56:08.259Z,4921.00
2023-06-11T03:57:08.220Z,4900.00
2023-06-11T03:58:08.235Z,4933.00
2023-06-11T03:59:08.197Z,4959.00
2023-06-11T04:00:08.177Z,4946.00
2023-06-11T04:01:08.183Z,4951.00
2023-06-11T04:02:08.215Z,4982.00
2023-06-11T04:03:08.490Z,4974.00
2023-06-11T04:04:08.247Z,4832.00
2023-06-11T04:05:08.529Z,4904.00
2023-06-11T04:06:08.236Z,4975.00
2023-06-11T04:07:08.281Z,4979.00
2023-06-11T04:08:08.768Z,4939.00
2023-06-11T04:09:08.338Z,4973.00
2023-06-11T04:10:08.460Z,5010.00
2023-06-11T04:11:08.516Z,4933.00
2023-06-11T04:12:08.462Z,4886.00
2023-06-11T04:13:08.529Z,4913.00
2023-06-11T04:14:08.594Z,4880.00
2023-06-11T04:15:08.907Z,4924.00
2023-06-11T04:16:08.610Z,5010.00
2023-06-11T04:17:08.686Z,5075.00
2023-06-11T04:18:08.782Z,5076.00
2023-06-11T04:19:08.748Z,5066.00
2023-06-11T04:20:08.794Z,5045.00
2023-06-11T04:21:08.776Z,4972.00
2023-06-11T04:22:08.733Z,5025.00
2023-06-11T04:23:08.796Z,5041.00
2023-06-11T04:24:09.749Z,5116.00
2023-06-11T04:25:09.161Z,5063.00
2023-06-11T04:26:09.078Z,5020.00
2023-06-11T04:27:09.012Z,4970.00
2023-06-11T04:28:09.033Z,5011.00
2023-06-11T04:29:09.092Z,5027.00
2023-06-11T04:30:09.168Z,5029.00
2023-06-11T04:31:09.195Z,5047.00
2023-06-11T04:32:09.236Z,5064.00
2023-06-11T04:33:09.354Z,5064.00
2023-06-11T04:34:09.300Z,5041.00
2023-06-11T04:35:10.099Z,5101.00
2023-06-11T04:36:09.299Z,5082.00
2023-06-11T04:37:09.339Z,5121.00
2023-06-11T04:38:09.278Z,5154.00
2023-06-11T04:39:09.271Z,5170.00
2023-06-11T04:40:09.295Z,5186.00
2023-06-11T04:41:09.304Z,5151.00
2023-06-11T04:42:09.268Z,5090.00
2023-06-11T04:43:09.261Z,5098.00
2023-06-11T04:44:09.274Z,5131.00
2023-06-11T04:45:09.480Z,5031.00
2023-06-11T04:46:09.248Z,4964.00
2023-06-11T04:47:09.243Z,4860.00
2023-06-11T04:48:09.227Z,4874.00
2023-06-11T04:49:09.259Z,4862.00
2023-06-11T04:50:09.199Z,4834.00
2023-06-11T04:51:09.206Z,4896.00
2023-06-11T04:52:09.227Z,4882.00
2023-06-11T04:53:09.206Z,4909.00
2023-06-11T04:54:09.185Z,4985.00
2023-06-11T04:55:09.565Z,4947.00
2023-06-11T04:56:09.157Z,4909.00
2023-06-11T04:57:09.150Z,4871.00
2023-06-11T04:58:09.135Z,4840.00
2023-06-11T04:59:09.164Z,4841.00
2023-06-11T05:00:09.379Z,4848.00
2023-06-11T05:01:09.137Z,4809.00
2023-06-11T05:02:09.152Z,4746.00
2023-06-11T05:03:09.238Z,4798.00
2023-06-11T05:04:09.092Z,4715.00
2023-06-11T05:05:09.408Z,4712.00
2023-06-11T05:06:09.102Z,4674.00
2023-06-11T05:07:09.131Z,4663.00
2023-06-11T05:08:09.084Z,4650.00
2023-06-11T05:09:09.110Z,4638.00
2023-06-11T05:10:09.082Z,4608.00
2023-06-11T05:11:09.081Z,4592.00
2023-06-11T05:12:09.059Z,4580.00
2023-06-11T05:13:09.069Z,4618.00
2023-06-11T05:14:09.066Z,4562.00
2023-06-11T05:16:09.043Z,4687.00
2023-06-11T05:17:09.039Z,4752.00
2023-06-11T05:18:09.089Z,4845.00
2023-06-11T05:19:09.023Z,4781.00
2023-06-11T05:20:09.073Z,4645.00
2023-06-11T05:21:09.018Z,4673.00
2023-06-11T05:22:09.036Z,4714.00
2023-06-11T05:23:08.977Z,4806.00
2023-06-11T05:24:09.271Z,4726.00
2023-06-11T05:25:09.144Z,4635.00
2023-06-11T05:26:08.953Z,4670.00
2023-06-11T05:27:08.967Z,4715.00
2023-06-11T05:28:08.960Z,4680.00
2023-06-11T05:29:08.974Z,4671.00
2023-06-11T05:30:08.933Z,4746.00
2023-06-11T05:31:08.926Z,4659.00
2023-06-11T05:32:08.972Z,4660.00
2023-06-11T05:33:08.929Z,4689.00
2023-06-11T05:34:08.905Z,4706.00
2023-06-11T05:35:09.132Z,4679.00
2023-06-11T05:36:08.871Z,4619.00
2023-06-11T05:37:08.934Z,4511.00
2023-06-11T05:38:09.283Z,4234.00
2023-06-11T05:39:08.922Z,4138.00
2023-06-11T05:40:08.951Z,4036.00
2023-06-11T05:41:08.953Z,4012.00
2023-06-11T05:42:09.013Z,3972.00
2023-06-11T05:43:09.041Z,3994.00
2023-06-11T05:44:09.037Z,3869.00
2023-06-11T05:45:09.276Z,3892.00
2023-06-11T05:46:09.118Z,3998.00
2023-06-11T05:47:09.171Z,3943.00
2023-06-11T05:48:09.213Z,3918.00
2023-06-11T05:49:09.199Z,3972.00
2023-06-11T05:50:09.252Z,3866.00
2023-06-11T05:51:09.294Z,3859.00
2023-06-11T05:52:09.281Z,3787.00
2023-06-11T05:53:09.287Z,3761.00
2023-06-11T05:54:09.281Z,3785.00
2023-06-11T05:55:09.628Z,3685.00
2023-06-11T05:56:09.350Z,3461.00
2023-06-11T05:57:09.418Z,3533.00
2023-06-11T05:58:09.417Z,3637.00
2023-06-11T05:59:09.489Z,3599.00
2023-06-11T06:00:09.471Z,3712.00
2023-06-11T06:01:09.547Z,3771.00
2023-06-11T06:02:09.700Z,3754.00
2023-06-11T06:03:09.747Z,3726.00
2023-06-11T06:04:09.749Z,3750.00
2023-06-11T06:05:10.025Z,3871.00
2023-06-11T06:06:09.672Z,3786.00
2023-06-11T06:07:09.744Z,3685.00
2023-06-11T06:08:09.755Z,3701.00
2023-06-11T06:09:09.780Z,3504.00
2023-06-11T06:10:09.811Z,3519.00
2023-06-11T06:11:09.872Z,3531.00
2023-06-11T06:12:09.891Z,3474.00
2023-06-11T06:13:09.933Z,3198.00
2023-06-11T06:14:09.999Z,3117.00
2023-06-11T06:15:10.328Z,3256.00
2023-06-11T06:16:10.046Z,3232.00
2023-06-11T06:17:10.011Z,3070.00
2023-06-11T06:18:10.148Z,2992.00
2023-06-11T06:19:10.187Z,3027.00
2023-06-11T06:20:10.195Z,2891.00
2023-06-11T06:21:10.198Z,2923.00
2023-06-11T06:22:10.282Z,2971.00
2023-06-11T06:23:10.255Z,2884.00
2023-06-11T06:24:10.322Z,2740.00
2023-06-11T06:25:10.469Z,2548.00
2023-06-11T06:26:10.330Z,2546.00
2023-06-11T06:27:10.411Z,2670.00
2023-06-11T06:28:10.421Z,2843.00
2023-06-11T06:29:10.431Z,2790.00
2023-06-11T06:30:10.452Z,2646.00
2023-06-11T06:31:10.568Z,2830.00
2023-06-11T06:32:10.625Z,2960.00
2023-06-11T06:33:10.574Z,2912.00
2023-06-11T06:34:10.602Z,2921.00
2023-06-11T06:35:10.936Z,2960.00
2023-06-11T06:36:10.707Z,2578.00
2023-06-11T06:37:10.722Z,2264.00
2023-06-11T06:38:10.788Z,2136.00
2023-06-11T06:39:10.798Z,2087.00
2023-06-11T06:40:11.018Z,2041.00
2023-06-11T06:41:10.837Z,2073.00
2023-06-11T06:42:10.914Z,1963.00
2023-06-11T06:43:10.921Z,1918.00
2023-06-11T06:44:10.975Z,1671.00
2023-06-11T06:45:11.937Z,1670.00
2023-06-11T06:46:10.995Z,1625.00
2023-06-11T06:47:10.973Z,1685.00
2023-06-11T06:48:11.111Z,1771.00
2023-06-11T06:49:10.966Z,1548.00
2023-06-11T06:50:11.194Z,1348.00
2023-06-11T06:51:10.990Z,1391.00
2023-06-11T06:52:10.920Z,1540.00
2023-06-11T06:53:10.930Z,1494.00
2023-06-11T06:54:10.938Z,1611.00
2023-06-11T06:55:10.968Z,1626.00
2023-06-11T06:56:10.928Z,1689.00
2023-06-11T06:57:10.941Z,1591.00
2023-06-11T06:58:10.930Z,1495.00
2023-06-11T06:59:10.942Z,1407.00
2023-06-11T07:00:11.185Z,1396.00
2023-06-11T07:01:10.929Z,1355.00
2023-06-11T07:02:10.895Z,1320.00
2023-06-11T07:03:10.911Z,1315.00
2023-06-11T07:04:10.867Z,1491.00
2023-06-11T07:05:10.886Z,1750.00
2023-06-11T07:06:10.906Z,1871.00
2023-06-11T07:07:10.843Z,1820.00
2023-06-11T07:08:10.825Z,1701.00
2023-06-11T07:09:10.840Z,1773.00
2023-06-11T07:10:11.154Z,1979.00
2023-06-11T07:11:10.865Z,1899.00
2023-06-11T07:12:10.821Z,1878.00
2023-06-11T07:13:10.831Z,1925.00
2023-06-11T07:14:10.801Z,1976.00
2023-06-11T07:15:10.840Z,2159.00
2023-06-11T07:16:10.866Z,2257.00
2023-06-11T07:17:10.774Z,2254.00
2023-06-11T07:18:10.816Z,2295.00
2023-06-11T07:19:10.744Z,2297.00
2023-06-11T07:20:11.095Z,2193.00
2023-06-11T07:21:10.886Z,2130.00
2023-06-11T07:22:10.758Z,2197.00
2023-06-11T07:23:10.728Z,2206.00
2023-06-11T07:24:10.768Z,2137.00
2023-06-11T07:25:10.744Z,2211.00
2023-06-11T07:26:10.736Z,2145.00
2023-06-11T07:27:10.705Z,2247.00
2023-06-11T07:28:10.702Z,2298.00
2023-06-11T07:29:12.786Z,2298.00
2023-06-11T07:30:10.939Z,2411.00
2023-06-11T07:31:10.681Z,2595.00
2023-06-11T07:32:10.762Z,2581.00
2023-06-11T07:33:10.807Z,2614.00
2023-06-11T07:34:10.825Z,2394.00
2023-06-11T07:35:10.806Z,2496.00
2023-06-11T07:36:10.861Z,2577.00
2023-06-11T07:37:10.876Z,2555.00
2023-06-11T07:38:10.936Z,2479.00
2023-06-11T07:39:10.912Z,2400.00
2023-06-11T07:40:11.244Z,2416.00
2023-06-11T07:41:11.003Z,2416.00
2023-06-11T07:42:11.023Z,2495.00
2023-06-11T07:43:11.058Z,2367.00
2023-06-11T07:44:11.041Z,2189.00
2023-06-11T07:45:11.148Z,2172.00
2023-06-11T07:46:12.807Z,2150.00
2023-06-11T07:47:11.158Z,2104.00
2023-06-11T07:48:11.242Z,1986.00
2023-06-11T07:49:11.203Z,1890.00
2023-06-11T07:50:11.283Z,2096.00
2023-06-11T07:51:11.237Z,2242.00
2023-06-11T07:52:11.251Z,2206.00
2023-06-11T07:53:11.269Z,2344.00
2023-06-11T07:54:11.295Z,2167.00
2023-06-11T07:55:11.326Z,2118.00
2023-06-11T07:56:11.340Z,2124.00
2023-06-11T07:57:11.352Z,2140.00
2023-06-11T07:58:11.357Z,2174.00
2023-06-11T07:59:11.383Z,2080.00
2023-06-11T08:00:11.726Z,2135.00
2023-06-11T08:01:11.478Z,2157.00
2023-06-11T08:02:11.600Z,2371.00
2023-06-11T08:03:11.599Z,2308.00
2023-06-11T08:04:11.585Z,2450.00
2023-06-11T08:05:11.633Z,2696.00
2023-06-11T08:06:11.824Z,2281.00
2023-06-11T08:07:11.708Z,2460.00
2023-06-11T08:08:11.719Z,2537.00
2023-06-11T08:09:11.740Z,2348.00
2023-06-11T08:10:11.893Z,2272.00
2023-06-11T08:11:11.812Z,2105.00
2023-06-11T08:12:11.829Z,1876.00
2023-06-11T08:13:11.871Z,1623.00
2023-06-11T08:14:11.932Z,1531.00
2023-06-11T08:15:12.001Z,1574.00
2023-06-11T08:16:12.053Z,1493.00
2023-06-11T08:17:12.090Z,1548.00
2023-06-11T08:18:12.110Z,1417.00
2023-06-11T08:19:12.094Z,1108.00
2023-06-11T08:20:12.362Z,1036.00
2023-06-11T08:21:12.174Z,753.00
2023-06-11T08:22:12.179Z,996.00
2023-06-11T08:23:12.181Z,1190.00
2023-06-11T08:24:12.302Z,1095.00
2023-06-11T08:25:12.300Z,982.00
2023-06-11T08:26:12.309Z,976.00
2023-06-11T08:27:12.322Z,714.00
2023-06-11T08:28:12.357Z,628.00
2023-06-11T08:29:12.427Z,593.00
2023-06-11T08:30:12.626Z,498.00
2023-06-11T08:31:12.490Z,644.00
2023-06-11T08:32:12.567Z,732.00
2023-06-11T08:33:12.573Z,635.00
2023-06-11T08:34:12.584Z,638.00
2023-06-11T08:35:12.653Z,637.00
2023-06-11T08:36:12.563Z,575.00
2023-06-11T08:37:12.611Z,652.00
2023-06-11T08:38:12.642Z,892.00
2023-06-11T08:39:12.646Z,603.00
2023-06-11T08:40:12.897Z,654.00
2023-06-11T08:41:12.719Z,750.00
2023-06-11T08:42:12.716Z,564.00
2023-06-11T08:43:12.776Z,488.00
2023-06-11T08:44:12.844Z,453.00
2023-06-11T08:45:12.906Z,400.00
2023-06-11T08:46:12.889Z,419.00
2023-06-11T08:47:12.892Z,400.00
2023-06-11T08:48:12.974Z,400.00
2023-06-11T08:49:12.979Z,400.00
2023-06-11T08:50:13.133Z,400.00
2023-06-11T08:51:13.021Z,400.00
2023-06-11T08:52:13.069Z,416.00
2023-06-11T08:53:13.025Z,533.00
2023-06-11T08:54:13.048Z,566.00
2023-06-11T08:55:13.105Z,589.00
2023-06-11T08:56:13.122Z,620.00
2023-06-11T08:57:13.155Z,608.00
2023-06-11T08:58:13.190Z,573.00
2023-06-11T08:59:13.192Z,569.00
2023-06-11T09:00:13.512Z,488.00
2023-06-11T09:01:13.253Z,406.00
2023-06-11T09:02:13.298Z,422.00
2023-06-11T09:03:13.369Z,1030.00
2023-06-11T09:04:13.384Z,453.00
2023-06-11T09:05:13.423Z,506.00
2023-06-11T09:06:13.420Z,522.00
2023-06-11T09:07:13.448Z,576.00
2023-06-11T09:08:13.532Z,611.00
2023-06-11T09:09:13.465Z,875.00
2023-06-11T09:10:13.613Z,1355.00
2023-06-11T09:11:13.554Z,1217.00
2023-06-11T09:12:13.568Z,1477.00
2023-06-11T09:13:13.621Z,1386.00
2023-06-11T09:14:13.628Z,1326.00
2023-06-11T09:15:13.664Z,1345.00
2023-06-11T09:16:13.771Z,1460.00
2023-06-11T09:17:13.725Z,1352.00
2023-06-11T09:18:13.838Z,1362.00
2023-06-11T09:19:13.814Z,1538.00
2023-06-11T09:20:14.259Z,1695.00
2023-06-11T09:21:13.865Z,1674.00
2023-06-11T09:22:13.914Z,1530.00
2023-06-11T09:23:13.912Z,1328.00
2023-06-11T09:24:13.985Z,1261.00
2023-06-11T09:25:14.204Z,1165.00
2023-06-11T09:26:14.051Z,990.00
2023-06-11T09:27:14.083Z,1081.00
2023-06-11T09:28:14.091Z,1359.00
2023-06-11T09:29:14.150Z,1383.00
2023-06-11T09:30:14.573Z,1402.00
2023-06-11T09:31:14.204Z,1341.00
2023-06-11T09:32:32.503Z,1202.00
2023-06-11T09:33:15.299Z,1209.00
2023-06-11T09:34:14.220Z,1213.00
2023-06-11T09:35:14.207Z,1218.00
2023-06-11T09:36:14.247Z,1231.00
2023-06-11T09:37:14.193Z,1220.00
2023-06-11T09:38:14.208Z,1222.00
2023-06-11T09:39:14.197Z,1289.00
2023-06-11T09:40:14.289Z,1356.00
2023-06-11T09:41:14.160Z,1277.00
2023-06-11T09:42:14.177Z,1378.00
2023-06-11T09:43:14.184Z,1298.00
2023-06-11T09:44:14.128Z,1239.00
2023-06-11T09:45:14.141Z,1239.00
2023-06-11T09:46:14.226Z,1198.00
2023-06-11T09:47:14.156Z,984.00
2023-06-11T09:48:14.159Z,938.00
2023-06-11T09:49:14.171Z,975.00
2023-06-11T09:50:14.297Z,814.00
2023-06-11T09:51:14.232Z,904.00
2023-06-11T09:52:14.271Z,928.00
2023-06-11T09:53:14.294Z,1002.00
2023-06-11T09:54:14.313Z,902.00
2023-06-11T09:55:14.387Z,811.00
2023-06-11T09:56:14.423Z,869.00
2023-06-11T09:57:14.425Z,905.00
2023-06-11T09:58:14.469Z,638.00
2023-06-11T09:59:14.474Z,634.00
2023-06-11T10:00:15.357Z,603.00
2023-06-11T10:01:14.546Z,736.00
2023-06-11T10:02:14.570Z,942.00
2023-06-11T10:03:14.670Z,823.00
2023-06-11T10:04:14.681Z,718.00
2023-06-11T10:05:14.898Z,707.00
2023-06-11T10:06:17.014Z,595.00
2023-06-11T10:07:14.672Z,596.00
2023-06-11T10:08:14.682Z,549.00
2023-06-11T10:09:14.645Z,625.00
2023-06-11T10:10:14.663Z,810.00
2023-06-11T10:11:14.683Z,964.00
2023-06-11T10:12:17.151Z,609.00
2023-06-11T10:13:14.650Z,605.00
2023-06-11T10:14:14.673Z,546.00
2023-06-11T10:15:14.720Z,525.00
2023-06-11T10:16:14.631Z,799.00
2023-06-11T10:17:14.609Z,636.00
2023-06-11T10:18:14.677Z,650.00
2023-06-11T10:19:14.625Z,644.00
2023-06-11T10:20:14.656Z,668.00
2023-06-11T10:21:14.618Z,640.00
2023-06-11T10:22:14.555Z,767.00
2023-06-11T10:23:14.617Z,651.00
2023-06-11T10:24:14.586Z,656.00
2023-06-11T10:25:14.548Z,567.00
2023-06-11T10:26:14.613Z,640.00
2023-06-11T10:27:14.591Z,715.00
2023-06-11T10:28:14.633Z,821.00
2023-06-11T10:29:14.559Z,833.00
2023-06-11T10:30:14.702Z,646.00
2023-06-11T10:31:14.570Z,651.00
2023-06-11T10:32:14.566Z,605.00
2023-06-11T10:33:14.621Z,582.00
2023-06-11T10:34:15.070Z,605.00
2023-06-11T10:35:14.580Z,624.00
2023-06-11T10:36:14.487Z,711.00
2023-06-11T10:37:14.489Z,765.00
2023-06-11T10:38:14.519Z,732.00
2023-06-11T10:39:14.510Z,810.00
2023-06-11T10:40:15.977Z,613.00
2023-06-11T10:41:14.481Z,614.00
2023-06-11T10:42:14.472Z,622.00
2023-06-11T10:43:14.453Z,614.00
2023-06-11T10:44:14.443Z,535.00
2023-06-11T10:45:14.482Z,614.00
2023-06-11T10:46:14.473Z,633.00
2023-06-11T10:47:14.428Z,550.00
2023-06-11T10:48:14.461Z,613.00
2023-06-11T10:49:15.172Z,673.00
2023-06-11T10:50:14.709Z,990.00
2023-06-11T10:51:14.447Z,775.00
2023-06-11T10:52:14.434Z,583.00
2023-06-11T10:53:14.680Z,615.00
2023-06-11T10:54:14.419Z,623.00
2023-06-11T10:55:14.398Z,580.00
2023-06-11T10:56:14.472Z,588.00
2023-06-11T10:57:14.390Z,559.00
2023-06-11T10:58:16.716Z,615.00
2023-06-11T10:59:14.378Z,617.00
2023-06-11T11:00:14.350Z,647.00
2023-06-11T11:01:14.360Z,660.00
2023-06-11T11:02:14.412Z,685.00
2023-06-11T11:03:14.414Z,1005.00
2023-06-11T11:04:14.437Z,1013.00
2023-06-11T11:05:14.708Z,988.00
2023-06-11T11:06:14.353Z,851.00
2023-06-11T11:07:14.308Z,1324.00
2023-06-11T11:08:16.798Z,1121.00
2023-06-11T11:09:14.323Z,1109.00
2023-06-11T11:10:14.390Z,831.00
2023-06-11T11:11:14.293Z,862.00
2023-06-11T11:12:14.274Z,990.00
2023-06-11T11:13:14.308Z,1215.00
2023-06-11T11:14:14.260Z,1449.00
2023-06-11T11:15:14.265Z,1461.00
2023-06-11T11:16:14.277Z,1183.00
2023-06-11T11:17:14.266Z,1582.00
2023-06-11T11:18:14.228Z,1384.00
2023-06-11T11:19:16.547Z,1220.00
2023-06-11T11:20:14.468Z,1108.00
2023-06-11T11:21:14.481Z,917.00
2023-06-11T11:22:14.512Z,1247.00
2023-06-11T11:23:14.483Z,1435.00
2023-06-11T11:24:14.524Z,1339.00
2023-06-11T11:25:14.580Z,1560.00
2023-06-11T11:26:14.551Z,1758.00
2023-06-11T11:27:14.576Z,1440.00
2023-06-11T11:28:14.613Z,1590.00
2023-06-11T11:29:14.676Z,1413.00
2023-06-11T11:30:14.788Z,1535.00
2023-06-11T11:31:14.727Z,1392.00
2023-06-11T11:32:14.835Z,1454.00
2023-06-11T11:33:14.811Z,1313.00
2023-06-11T11:34:14.744Z,1258.00
2023-06-11T11:35:14.858Z,1948.00
2023-06-11T11:36:14.816Z,1382.00
2023-06-11T11:37:14.861Z,1187.00
2023-06-11T11:38:14.946Z,1034.00
2023-06-11T11:39:15.073Z,1338.00
2023-06-11T11:40:15.423Z,1678.00
2023-06-11T11:41:15.012Z,1437.00
2023-06-11T11:42:15.056Z,1481.00
2023-06-11T11:43:15.073Z,1409.00
2023-06-11T11:44:15.120Z,1662.00
2023-06-11T11:45:15.156Z,1121.00
2023-06-11T11:46:15.305Z,663.00
2023-06-11T11:47:15.273Z,740.00
2023-06-11T11:48:15.277Z,706.00
2023-06-11T11:49:15.296Z,1238.00
2023-06-11T11:50:15.302Z,473.00
2023-06-11T11:51:15.318Z,400.00
2023-06-11T11:52:15.395Z,400.00
2023-06-11T11:53:15.384Z,400.00
2023-06-11T11:54:15.453Z,477.00
2023-06-11T11:55:15.437Z,511.00
2023-06-11T11:56:15.506Z,489.00
2023-06-11T11:57:15.494Z,494.00
2023-06-11T11:58:15.506Z,511.00
2023-06-11T11:59:15.504Z,422.00
2023-06-11T12:01:04.559Z,600.00
2023-06-11T12:02:04.558Z,600.00
2023-06-11T12:03:04.734Z,600.00
2023-06-11T12:04:04.644Z,600.00
2023-06-11T12:05:04.554Z,600.00
2023-06-11T12:06:04.552Z,751.00
2023-06-11T12:07:24.472Z,600.00
2023-06-11T12:08:24.521Z,600.00
2023-06-11T12:09:24.525Z,600.00
2023-06-11T12:10:25.383Z,600.00
2023-06-11T12:11:24.516Z,600.00
2023-06-11T12:12:24.508Z,625.00